Accueil
METAR-TAF:

METAR-TAF

Aéroports :

Trévise, Italie

Aéroport de Trévise

latitude: 45-39N, longitude: 012-11E, altitude: 18 m

Observation

Le bulletin a été fait il y a 26 minutes, à 21:50 UTC
Vent 1 kt de nord
Température 7°C
Humidité 93%
Pression 1020 hPa
Visibilité: 4000 m
Nuages épars à une hauteur de 7000 ft
brume

METAR: LIPH 242150Z 01001KT 4000 BR SCT070 07/06 Q1020

Heure: 23:16 (22:16 UTC)

Prévision

Le bulletin a été fait il y a 5 heures et 16 minutes, à 17:00 UTC
Prévision valable du 24 à 18 UTC au 25 à 18 UTC
Vent 5 kt de direction variable
Visibilité: 2000 m
Nuages épars à une hauteur de 3000 ft
brume
Evoluant progressivement
du 25 à 06 UTC au 25 à 08 UTC
Visibilité: 6000 m
Temporairement
du 25 à 06 UTC au 25 à 18 UTC
pluie

TAF: LIPH 241700Z 2418/2518 VRB05KT 2000 BR SCT030 BECMG 2506/2508 6000 TEMPO 2506/2518 RA

Observations et prévisions météorologiques de plus de 4000 aéroports (messages METAR et TAF).

Les stations disponibles sont représentées par des disques jaunes et rouges sur la carte.

Passer la souris dessus pour voir le nom de la station.

Cliquer dessus pour voir les observations et prévisions météorologiques.

Pour changer de carte: cliquez sur les boutons verts avec une croix noire pour zoomer, sur le bouton vert avec un tiret pour effectuer un zoom arrière, ou sur les flèches vertes pour les cartes adjacentes.


METAR-TAF: